sensor_id;sensor_type;location;lat;lon;timestamp;pressure;altitude;pressure_sealevel;temperature;humidity
56518;BME280;42419;48.760;2.322;2023-03-11T00:01:35;100086.00;;;23.63;27.22
56518;BME280;42419;48.760;2.322;2023-03-11T00:04:02;100083.91;;;23.54;27.04
56518;BME280;42419;48.760;2.322;2023-03-11T00:06:28;100123.56;;;23.65;26.83
56518;BME280;42419;48.760;2.322;2023-03-11T00:08:53;100133.44;;;23.64;26.95
56518;BME280;42419;48.760;2.322;2023-03-11T00:11:18;100133.44;;;23.64;26.93
56518;BME280;42419;48.760;2.322;2023-03-11T00:13:44;100139.69;;;23.65;27.28
56518;BME280;42419;48.760;2.322;2023-03-11T00:16:09;100154.94;;;23.64;26.90
56518;BME280;42419;48.760;2.322;2023-03-11T00:18:34;100158.59;;;23.63;26.90
56518;BME280;42419;48.760;2.322;2023-03-11T00:21:00;100145.34;;;23.60;26.70
56518;BME280;42419;48.760;2.322;2023-03-11T00:23:26;100056.59;;;23.19;26.95
56518;BME280;42419;48.760;2.322;2023-03-11T00:25:52;100107.91;;;23.57;27.07
56518;BME280;42419;48.760;2.322;2023-03-11T00:28:17;100104.25;;;23.58;26.79
56518;BME280;42419;48.760;2.322;2023-03-11T00:30:44;100120.94;;;23.63;26.69
56518;BME280;42419;48.760;2.322;2023-03-11T00:33:12;100120.09;;;23.63;26.67
56518;BME280;42419;48.760;2.322;2023-03-11T00:35:37;100072.03;;;23.30;26.90
56518;BME280;42419;48.760;2.322;2023-03-11T00:38:05;100116.75;;;23.59;26.77
56518;BME280;42419;48.760;2.322;2023-03-11T00:40:33;100135.72;;;23.70;26.89
56518;BME280;42419;48.760;2.322;2023-03-11T00:42:59;100116.72;;;23.73;26.45
56518;BME280;42419;48.760;2.322;2023-03-11T00:45:25;100104.97;;;23.74;26.38
56518;BME280;42419;48.760;2.322;2023-03-11T00:47:51;100100.38;;;23.77;26.72
56518;BME280;42419;48.760;2.322;2023-03-11T00:50:20;100100.38;;;23.77;26.63
56518;BME280;42419;48.760;2.322;2023-03-11T00:52:46;100104.81;;;23.78;26.78
56518;BME280;42419;48.760;2.322;2023-03-11T00:55:14;100097.69;;;23.77;26.32
56518;BME280;42419;48.760;2.322;2023-03-11T00:57:40;100108.44;;;23.77;26.72
56518;BME280;42419;48.760;2.322;2023-03-11T01:00:06;100104.03;;;23.76;26.95
56518;BME280;42419;48.760;2.322;2023-03-11T01:02:36;100103.16;;;23.75;26.59
56518;BME280;42419;48.760;2.322;2023-03-11T01:05:02;100093.00;;;23.66;26.45
56518;BME280;42419;48.760;2.322;2023-03-11T01:07:27;100122.84;;;23.76;26.80
56518;BME280;42419;48.760;2.322;2023-03-11T01:09:52;100117.56;;;23.74;26.47
56518;BME280;42419;48.760;2.322;2023-03-11T01:12:18;100124.88;;;23.72;26.39
56518;BME280;42419;48.760;2.322;2023-03-11T01:14:43;100132.06;;;23.71;26.32
56518;BME280;42419;48.760;2.322;2023-03-11T01:17:09;100100.69;;;23.58;26.59
56518;BME280;42419;48.760;2.322;2023-03-11T01:19:34;100110.56;;;23.71;25.88
56518;BME280;42419;48.760;2.322;2023-03-11T01:21:59;100116.91;;;23.70;26.54
56518;BME280;42419;48.760;2.322;2023-03-11T01:24:24;100120.53;;;23.69;26.57
56518;BME280;42419;48.760;2.322;2023-03-11T01:26:50;100117.00;;;23.69;26.52
56518;BME280;42419;48.760;2.322;2023-03-11T01:29:15;100035.59;;;23.26;26.59
56518;BME280;42419;48.760;2.322;2023-03-11T01:31:40;100117.00;;;23.69;26.54
56518;BME280;42419;48.760;2.322;2023-03-11T01:34:06;100084.22;;;23.50;26.83
56518;BME280;42419;48.760;2.322;2023-03-11T01:36:31;100099.16;;;23.68;26.39
56518;BME280;42419;48.760;2.322;2023-03-11T01:38:56;100120.66;;;23.68;26.53
56518;BME280;42419;48.760;2.322;2023-03-11T01:41:22;100116.31;;;23.65;26.68
56518;BME280;42419;48.760;2.322;2023-03-11T01:43:51;100112.31;;;23.58;26.37
56518;BME280;42419;48.760;2.322;2023-03-11T01:49:11;100109.63;;;23.58;26.33
56518;BME280;42419;48.760;2.322;2023-03-11T01:51:40;100069.34;;;23.30;26.46
56518;BME280;42419;48.760;2.322;2023-03-11T01:54:18;100115.88;;;23.59;26.67
56518;BME280;42419;48.760;2.322;2023-03-11T01:56:45;100097.94;;;23.59;27.15
56518;BME280;42419;48.760;2.322;2023-03-11T01:59:14;100104.81;;;23.63;26.64
56518;BME280;42419;48.760;2.322;2023-03-11T02:01:54;100123.56;;;23.65;26.74
56518;BME280;42419;48.760;2.322;2023-03-11T02:04:23;100125.53;;;23.61;26.39
56518;BME280;42419;48.760;2.322;2023-03-11T02:06:48;100119.13;;;23.64;26.51
56518;BME280;42419;48.760;2.322;2023-03-11T02:09:14;100120.09;;;23.63;26.73
56518;BME280;42419;48.760;2.322;2023-03-11T02:11:39;100138.81;;;23.64;26.30
56518;BME280;42419;48.760;2.322;2023-03-11T02:14:05;100138.81;;;23.64;26.24
56518;BME280;42419;48.760;2.322;2023-03-11T02:16:32;100137.00;;;23.65;26.53
56518;BME280;42419;48.760;2.322;2023-03-11T02:19:00;100138.97;;;23.61;26.23
56518;BME280;42419;48.760;2.322;2023-03-11T02:21:31;100081.38;;;23.24;26.42
56518;BME280;42419;48.760;2.322;2023-03-11T02:24:35;100137.66;;;23.54;26.31
56518;BME280;42419;48.760;2.322;2023-03-11T02:26:59;100142.44;;;23.63;26.60
56518;BME280;42419;48.760;2.322;2023-03-11T02:29:27;100114.63;;;23.50;26.55
56518;BME280;42419;48.760;2.322;2023-03-11T02:31:54;100144.28;;;23.63;26.29
56518;BME280;42419;48.760;2.322;2023-03-11T02:34:24;100085.59;;;23.28;26.30
56518;BME280;42419;48.760;2.322;2023-03-11T02:36:49;100146.09;;;23.62;26.58
56518;BME280;42419;48.760;2.322;2023-03-11T02:39:15;100060.13;;;23.20;26.15
56518;BME280;42419;48.760;2.322;2023-03-11T02:41:44;100129.00;;;23.63;26.52
56518;BME280;42419;48.760;2.322;2023-03-11T02:44:13;100121.81;;;23.64;26.40
56518;BME280;42419;48.760;2.322;2023-03-11T02:46:40;100116.44;;;23.64;26.63
56518;BME280;42419;48.760;2.322;2023-03-11T02:49:06;100091.88;;;23.56;26.17
56518;BME280;42419;48.760;2.322;2023-03-11T02:51:32;100093.22;;;23.63;26.22
56518;BME280;42419;48.760;2.322;2023-03-11T02:54:02;100003.91;;;23.17;26.25
56518;BME280;42419;48.760;2.322;2023-03-11T02:56:28;100086.09;;;23.62;26.57
56518;BME280;42419;48.760;2.322;2023-03-11T02:58:54;100070.78;;;23.50;26.14
56518;BME280;42419;48.760;2.322;2023-03-11T03:01:19;100097.72;;;23.62;26.34
56518;BME280;42419;48.760;2.322;2023-03-11T03:03:44;100124.59;;;23.62;26.42
56518;BME280;42419;48.760;2.322;2023-03-11T03:06:10;100128.16;;;23.63;26.11
56518;BME280;42419;48.760;2.322;2023-03-11T03:08:36;100110.50;;;23.59;26.67
56518;BME280;42419;48.760;2.322;2023-03-11T03:11:01;100088.72;;;23.49;26.47
56518;BME280;42419;48.760;2.322;2023-03-11T03:13:27;100101.66;;;23.57;26.49
56518;BME280;42419;48.760;2.322;2023-03-11T03:15:53;100105.78;;;23.62;26.41
56518;BME280;42419;48.760;2.322;2023-03-11T03:18:19;100107.81;;;23.59;26.26
56518;BME280;42419;48.760;2.322;2023-03-11T03:20:44;100106.56;;;23.64;26.50
56518;BME280;42419;48.760;2.322;2023-03-11T03:23:10;100111.94;;;23.64;26.30
56518;BME280;42419;48.760;2.322;2023-03-11T03:25:35;100091.03;;;23.55;26.44
56518;BME280;42419;48.760;2.322;2023-03-11T03:28:00;100086.09;;;23.62;26.08
56518;BME280;42419;48.760;2.322;2023-03-11T03:30:26;100084.06;;;23.65;26.31
56518;BME280;42419;48.760;2.322;2023-03-11T03:32:53;100079.56;;;23.66;26.56
56518;BME280;42419;48.760;2.322;2023-03-11T03:35:19;100076.00;;;23.65;26.57
56518;BME280;42419;48.760;2.322;2023-03-11T03:37:44;100070.53;;;23.67;25.99
56518;BME280;42419;48.760;2.322;2023-03-11T03:40:12;100061.63;;;23.66;26.23
56518;BME280;42419;48.760;2.322;2023-03-11T03:42:37;100055.38;;;23.66;26.07
56518;BME280;42419;48.760;2.322;2023-03-11T03:45:05;100070.53;;;23.67;26.04
56518;BME280;42419;48.760;2.322;2023-03-11T03:47:32;100047.84;;;23.44;26.21
56518;BME280;42419;48.760;2.322;2023-03-11T03:49:57;100093.00;;;23.66;26.05
56518;BME280;42419;48.760;2.322;2023-03-11T03:52:23;100086.41;;;23.57;26.36
56518;BME280;42419;48.760;2.322;2023-03-11T03:54:49;100098.28;;;23.67;26.29
56518;BME280;42419;48.760;2.322;2023-03-11T03:57:14;100093.13;;;23.64;26.13
56518;BME280;42419;48.760;2.322;2023-03-11T03:59:40;100095.13;;;23.61;26.06
56518;BME280;42419;48.760;2.322;2023-03-11T04:02:05;100121.41;;;23.70;26.29
56518;BME280;42419;48.760;2.322;2023-03-11T04:04:31;100124.97;;;23.70;26.02
56518;BME280;42419;48.760;2.322;2023-03-11T04:06:56;100113.47;;;23.68;25.96
56518;BME280;42419;48.760;2.322;2023-03-11T04:09:21;100115.16;;;23.69;26.11
56518;BME280;42419;48.760;2.322;2023-03-11T04:11:47;100118.72;;;23.70;26.22
56518;BME280;42419;48.760;2.322;2023-03-11T04:14:12;100122.19;;;23.72;26.35
56518;BME280;42419;48.760;2.322;2023-03-11T04:16:37;100113.25;;;23.71;25.94
56518;BME280;42419;48.760;2.322;2023-03-11T04:19:03;100109.69;;;23.71;26.20
56518;BME280;42419;48.760;2.322;2023-03-11T04:21:30;100116.91;;;23.70;26.29
56518;BME280;42419;48.760;2.322;2023-03-11T04:23:56;100107.31;;;23.66;26.14
56518;BME280;42419;48.760;2.322;2023-03-11T04:26:21;100092.03;;;23.67;26.20
56518;BME280;42419;48.760;2.322;2023-03-11T04:28:46;100099.81;;;23.71;26.04
56518;BME280;42419;48.760;2.322;2023-03-11T04:31:12;100087.75;;;23.64;26.26
56518;BME280;42419;48.760;2.322;2023-03-11T04:33:37;100064.63;;;23.48;25.95
56518;BME280;42419;48.760;2.322;2023-03-11T04:36:07;100117.75;;;23.71;25.99
56518;BME280;42419;48.760;2.322;2023-03-11T04:38:32;100044.72;;;23.23;26.24
56518;BME280;42419;48.760;2.322;2023-03-11T04:41:02;100134.75;;;23.71;25.65
56518;BME280;42419;48.760;2.322;2023-03-11T04:43:28;100130.25;;;23.72;26.36
56518;BME280;42419;48.760;2.322;2023-03-11T04:45:53;100127.84;;;23.67;26.29
56518;BME280;42419;48.760;2.322;2023-03-11T04:48:18;100118.06;;;23.66;26.08
56518;BME280;42419;48.760;2.322;2023-03-11T04:50:44;100138.59;;;23.67;26.20
56518;BME280;42419;48.760;2.322;2023-03-11T04:53:09;100133.88;;;23.71;26.12
56518;BME280;42419;48.760;2.322;2023-03-11T04:55:34;100073.03;;;23.29;26.36
56518;BME280;42419;48.760;2.322;2023-03-11T04:58:00;100081.84;;;23.31;25.92
56518;BME280;42419;48.760;2.322;2023-03-11T05:00:25;100146.28;;;23.73;26.20
56518;BME280;42419;48.760;2.322;2023-03-11T05:02:51;100133.53;;;23.63;26.07
56518;BME280;42419;48.760;2.322;2023-03-11T05:05:16;100147.13;;;23.74;25.64
56518;BME280;42419;48.760;2.322;2023-03-11T05:07:43;100130.53;;;23.67;26.14
56518;BME280;42419;48.760;2.322;2023-03-11T05:10:09;100044.03;;;23.20;26.23
56518;BME280;42419;48.760;2.322;2023-03-11T05:12:34;100127.56;;;23.72;26.02
56518;BME280;42419;48.760;2.322;2023-03-11T05:14:59;100088.56;;;23.38;26.08
56518;BME280;42419;48.760;2.322;2023-03-11T05:17:25;100157.13;;;23.72;25.67
56518;BME280;42419;48.760;2.322;2023-03-11T05:19:51;100173.16;;;23.73;25.87
56518;BME280;42419;48.760;2.322;2023-03-11T05:22:17;100165.94;;;23.74;25.78
56518;BME280;42419;48.760;2.322;2023-03-11T05:24:43;100156.25;;;23.71;25.72
56518;BME280;42419;48.760;2.322;2023-03-11T05:27:08;100164.13;;;23.74;25.63
56518;BME280;42419;48.760;2.322;2023-03-11T05:29:33;100154.22;;;23.75;25.56
56518;BME280;42419;48.760;2.322;2023-03-11T05:31:59;100073.84;;;23.29;25.69
56518;BME280;42419;48.760;2.322;2023-03-11T05:34:24;100149.81;;;23.74;26.10
56518;BME280;42419;48.760;2.322;2023-03-11T05:36:50;100155.31;;;23.72;25.79
56518;BME280;42419;48.760;2.322;2023-03-11T05:39:15;100151.09;;;23.68;25.54
56518;BME280;42419;48.760;2.322;2023-03-11T05:41:40;100145.72;;;23.68;25.67
56518;BME280;42419;48.760;2.322;2023-03-11T05:44:06;100135.94;;;23.53;25.52
56518;BME280;42419;48.760;2.322;2023-03-11T05:46:31;100172.38;;;23.71;26.06
56518;BME280;42419;48.760;2.322;2023-03-11T05:48:58;100153.28;;;23.62;26.04
56518;BME280;42419;48.760;2.322;2023-03-11T05:51:24;100167.38;;;23.65;25.72
56518;BME280;42419;48.760;2.322;2023-03-11T05:53:49;100155.09;;;23.61;25.81
56518;BME280;42419;48.760;2.322;2023-03-11T05:56:15;100182.28;;;23.71;25.48
56518;BME280;42419;48.760;2.322;2023-03-11T05:58:41;100183.06;;;23.73;25.66
56518;BME280;42419;48.760;2.322;2023-03-11T06:01:08;100178.53;;;23.73;25.78
56518;BME280;42419;48.760;2.322;2023-03-11T06:03:34;100171.31;;;23.74;25.47
56518;BME280;42419;48.760;2.322;2023-03-11T06:06:00;100108.13;;;23.40;25.76
56518;BME280;42419;48.760;2.322;2023-03-11T06:08:25;100166.81;;;23.74;25.85
56518;BME280;42419;48.760;2.322;2023-03-11T06:10:50;100096.63;;;23.24;25.55
56518;BME280;42419;48.760;2.322;2023-03-11T06:13:16;100195.63;;;23.72;25.63
56518;BME280;42419;48.760;2.322;2023-03-11T06:15:43;100170.94;;;23.66;25.73
56518;BME280;42419;48.760;2.322;2023-03-11T06:18:09;100190.25;;;23.72;25.64
56518;BME280;42419;48.760;2.322;2023-03-11T06:20:35;100192.94;;;23.72;25.83
56518;BME280;42419;48.760;2.322;2023-03-11T06:23:01;100198.19;;;23.74;25.65
56518;BME280;42419;48.760;2.322;2023-03-11T06:25:27;100127.78;;;23.41;25.65
56518;BME280;42419;48.760;2.322;2023-03-11T06:27:52;100197.53;;;23.70;25.74
56518;BME280;42419;48.760;2.322;2023-03-11T06:30:18;100181.59;;;23.67;25.83
56518;BME280;42419;48.760;2.322;2023-03-11T06:32:45;100195.78;;;23.84;25.69
56518;BME280;42419;48.760;2.322;2023-03-11T06:35:11;100198.34;;;23.87;25.74
56518;BME280;42419;48.760;2.322;2023-03-11T06:37:37;100197.47;;;23.86;25.76
56518;BME280;42419;48.760;2.322;2023-03-11T06:40:03;100184.66;;;23.76;25.43
56518;BME280;42419;48.760;2.322;2023-03-11T06:42:29;100209.97;;;23.87;25.19
56518;BME280;42419;48.760;2.322;2023-03-11T06:44:55;100205.41;;;23.88;25.70
56518;BME280;42419;48.760;2.322;2023-03-11T06:47:20;100178.34;;;23.77;25.53
56518;BME280;42419;48.760;2.322;2023-03-11T06:49:46;100191.03;;;23.89;25.39
56518;BME280;42419;48.760;2.322;2023-03-11T06:52:11;100177.38;;;23.78;25.54
56518;BME280;42419;48.760;2.322;2023-03-11T06:54:36;100184.09;;;23.85;25.55
56518;BME280;42419;48.760;2.322;2023-03-11T06:57:02;100193.97;;;23.84;25.33
56518;BME280;42419;48.760;2.322;2023-03-11T06:59:27;100193.97;;;23.84;25.31
56518;BME280;42419;48.760;2.322;2023-03-11T07:01:53;100197.47;;;23.86;25.66
56518;BME280;42419;48.760;2.322;2023-03-11T07:04:19;100194.78;;;23.86;25.51
56518;BME280;42419;48.760;2.322;2023-03-11T07:06:45;100198.22;;;23.88;25.37
56518;BME280;42419;48.760;2.322;2023-03-11T07:09:11;100206.19;;;23.90;25.39
56518;BME280;42419;48.760;2.322;2023-03-11T07:11:37;100190.53;;;23.82;25.62
56518;BME280;42419;48.760;2.322;2023-03-11T07:14:02;100193.97;;;23.84;25.41
56518;BME280;42419;48.760;2.322;2023-03-11T07:16:29;100223.94;;;23.92;25.66
56518;BME280;42419;48.760;2.322;2023-03-11T07:18:56;100219.44;;;23.93;25.29
56518;BME280;42419;48.760;2.322;2023-03-11T07:21:23;100223.78;;;23.95;25.28
56518;BME280;42419;48.760;2.322;2023-03-11T07:23:53;100232.59;;;23.97;25.14
56518;BME280;42419;48.760;2.322;2023-03-11T07:26:19;100248.72;;;23.97;25.13
56518;BME280;42419;48.760;2.322;2023-03-11T07:28:44;100251.53;;;23.96;25.25
56518;BME280;42419;48.760;2.322;2023-03-11T07:31:12;100254.97;;;23.98;25.23
56518;BME280;42419;48.760;2.322;2023-03-11T07:33:38;100260.34;;;23.98;25.11
56518;BME280;42419;48.760;2.322;2023-03-11T07:36:08;100262.09;;;23.99;25.59
56518;BME280;42419;48.760;2.322;2023-03-11T07:38:34;100244.78;;;23.89;25.35
56518;BME280;42419;48.760;2.322;2023-03-11T07:41:00;100261.31;;;23.97;25.69
56518;BME280;42419;48.760;2.322;2023-03-11T07:43:26;100268.41;;;23.98;25.31
56518;BME280;42419;48.760;2.322;2023-03-11T07:45:51;100251.13;;;23.88;25.17
56518;BME280;42419;48.760;2.322;2023-03-11T07:48:16;100284.47;;;23.99;25.50
56518;BME280;42419;48.760;2.322;2023-03-11T07:50:42;100278.22;;;23.99;25.12
56518;BME280;42419;48.760;2.322;2023-03-11T07:53:07;100277.66;;;23.94;24.94
56518;BME280;42419;48.760;2.322;2023-03-11T07:55:33;100280.91;;;23.99;25.38
56518;BME280;42419;48.760;2.322;2023-03-11T07:57:58;100200.34;;;23.55;25.52
56518;BME280;42419;48.760;2.322;2023-03-11T08:00:23;100188.63;;;23.56;25.37
56518;BME280;42419;48.760;2.322;2023-03-11T08:02:49;100263.81;;;24.00;25.44
56518;BME280;42419;48.760;2.322;2023-03-11T08:05:14;100262.09;;;23.99;25.21
56518;BME280;42419;48.760;2.322;2023-03-11T08:07:40;100263.91;;;23.98;25.28
56518;BME280;42419;48.760;2.322;2023-03-11T08:10:05;100264.41;;;23.91;25.14
56518;BME280;42419;48.760;2.322;2023-03-11T08:12:31;100217.91;;;23.60;25.26
56518;BME280;42419;48.760;2.322;2023-03-11T08:14:56;100280.13;;;23.97;25.42
56518;BME280;42419;48.760;2.322;2023-03-11T08:17:21;100296.19;;;23.98;25.27
56518;BME280;42419;48.760;2.322;2023-03-11T08:19:48;100212.03;;;23.54;25.27
56518;BME280;42419;48.760;2.322;2023-03-11T08:22:14;100295.09;;;24.01;25.27
56518;BME280;42419;48.760;2.322;2023-03-11T08:24:39;100278.78;;;23.90;25.38
56518;BME280;42419;48.760;2.322;2023-03-11T08:27:04;100282.66;;;24.00;25.51
56518;BME280;42419;48.760;2.322;2023-03-11T08:29:30;100282.81;;;23.97;25.10
56518;BME280;42419;48.760;2.322;2023-03-11T08:31:55;100293.28;;;24.01;25.01
56518;BME280;42419;48.760;2.322;2023-03-11T08:34:20;100287.91;;;24.01;25.51
56518;BME280;42419;48.760;2.322;2023-03-11T08:36:46;100261.50;;;23.94;25.00
56518;BME280;42419;48.760;2.322;2023-03-11T08:39:12;100291.28;;;24.05;25.22
56518;BME280;42419;48.760;2.322;2023-03-11T08:41:37;100280.31;;;24.08;25.06
56518;BME280;42419;48.760;2.322;2023-03-11T08:44:03;100192.72;;;23.61;24.57
56518;BME280;42419;48.760;2.322;2023-03-11T08:46:34;100271.19;;;24.10;24.84
56518;BME280;42419;48.760;2.322;2023-03-11T08:49:00;100272.16;;;24.09;25.01
56518;BME280;42419;48.760;2.322;2023-03-11T08:51:27;100278.78;;;24.18;24.81
56518;BME280;42419;48.760;2.322;2023-03-11T08:53:52;100290.28;;;24.20;24.59
56518;BME280;42419;48.760;2.322;2023-03-11T08:56:18;100292.78;;;24.23;25.04
56518;BME280;42419;48.760;2.322;2023-03-11T08:58:45;100313.34;;;24.24;24.78
56518;BME280;42419;48.760;2.322;2023-03-11T09:01:11;100262.00;;;24.00;24.62
56518;BME280;42419;48.760;2.322;2023-03-11T09:03:37;100282.63;;;24.14;24.64
56518;BME280;42419;48.760;2.322;2023-03-11T09:06:04;100317.69;;;24.27;24.82
56518;BME280;42419;48.760;2.322;2023-03-11T09:08:31;100314.78;;;24.30;24.63
56518;BME280;42419;48.760;2.322;2023-03-11T09:10:56;100304.91;;;24.30;24.64
56518;BME280;42419;48.760;2.322;2023-03-11T09:13:21;100309.31;;;24.31;24.69
56518;BME280;42419;48.760;2.322;2023-03-11T09:15:48;100311.16;;;24.31;24.71
56518;BME280;42419;48.760;2.322;2023-03-11T09:18:14;100315.44;;;24.33;24.97
56518;BME280;42419;48.760;2.322;2023-03-11T09:20:41;100228.66;;;23.89;24.57
56518;BME280;42419;48.760;2.322;2023-03-11T09:23:08;100283.56;;;24.27;24.65
56518;BME280;42419;48.760;2.322;2023-03-11T09:25:33;100293.94;;;24.33;24.64
56518;BME280;42419;48.760;2.322;2023-03-11T09:27:59;100297.19;;;24.38;24.64
56518;BME280;42419;48.760;2.322;2023-03-11T09:30:25;100250.16;;;24.17;24.86
56518;BME280;42419;48.760;2.322;2023-03-11T09:32:50;100293.34;;;24.42;24.95
56518;BME280;42419;48.760;2.322;2023-03-11T09:35:15;100297.84;;;24.42;25.21
56518;BME280;42419;48.760;2.322;2023-03-11T09:37:40;100285.38;;;24.41;24.84
56518;BME280;42419;48.760;2.322;2023-03-11T09:40:06;100282.69;;;24.41;25.12
56518;BME280;42419;48.760;2.322;2023-03-11T09:43:03;100271.34;;;24.36;25.21
56518;BME280;42419;48.760;2.322;2023-03-11T09:45:33;100218.09;;;24.00;24.94
56518;BME280;42419;48.760;2.322;2023-03-11T09:48:42;100302.06;;;24.46;24.82
56518;BME280;42419;48.760;2.322;2023-03-11T09:51:15;100306.59;;;24.45;24.98
56518;BME280;42419;48.760;2.322;2023-03-11T09:53:44;100293.13;;;24.45;24.80
56518;BME280;42419;48.760;2.322;2023-03-11T09:56:15;100264.25;;;24.35;25.08
56518;BME280;42419;48.760;2.322;2023-03-11T09:58:49;100218.47;;;24.08;24.93
56518;BME280;42419;48.760;2.322;2023-03-11T10:01:26;100281.34;;;24.48;25.15
56518;BME280;42419;48.760;2.322;2023-03-11T10:03:56;100289.41;;;24.48;24.99
56518;BME280;42419;48.760;2.322;2023-03-11T10:06:24;100297.41;;;24.49;24.92
56518;BME280;42419;48.760;2.322;2023-03-11T10:09:02;100295.38;;;24.53;25.22
56518;BME280;42419;48.760;2.322;2023-03-11T10:14:27;100304.19;;;24.55;25.02
56518;BME280;42419;48.760;2.322;2023-03-11T10:17:18;100248.41;;;24.16;25.27
56518;BME280;42419;48.760;2.322;2023-03-11T10:19:48;100252.06;;;24.15;25.04
56518;BME280;42419;48.760;2.322;2023-03-11T10:25:10;100316.69;;;24.56;24.50
56518;BME280;42419;48.760;2.322;2023-03-11T10:28:00;100321.03;;;24.58;25.07
56518;BME280;42419;48.760;2.322;2023-03-11T10:30:31;100235.91;;;24.15;25.06
56518;BME280;42419;48.760;2.322;2023-03-11T10:33:19;100309.19;;;24.61;24.71
56518;BME280;42419;48.760;2.322;2023-03-11T10:35:50;100319.09;;;24.60;25.09
56518;BME280;42419;48.760;2.322;2023-03-11T10:38:30;100306.50;;;24.61;25.34
56518;BME280;42419;48.760;2.322;2023-03-11T10:40:59;100313.06;;;24.57;25.43
56518;BME280;42419;48.760;2.322;2023-03-11T10:43:28;100258.00;;;24.20;25.65
56518;BME280;42419;48.760;2.322;2023-03-11T10:45:56;100312.38;;;24.53;25.41
56518;BME280;42419;48.760;2.322;2023-03-11T10:48:24;100313.44;;;24.51;25.16
56518;BME280;42419;48.760;2.322;2023-03-11T10:51:00;100308.91;;;24.51;25.40
56518;BME280;42419;48.760;2.322;2023-03-11T10:53:27;100314.22;;;24.53;25.42
56518;BME280;42419;48.760;2.322;2023-03-11T10:55:55;100313.25;;;24.54;25.50
56518;BME280;42419;48.760;2.322;2023-03-11T10:58:25;100310.44;;;24.55;25.19
56518;BME280;42419;48.760;2.322;2023-03-11T11:01:10;100292.13;;;24.48;25.29
56518;BME280;42419;48.760;2.322;2023-03-11T11:03:41;100303.91;;;24.59;25.66
56518;BME280;42419;48.760;2.322;2023-03-11T11:09:16;100259.72;;;24.35;25.42
56518;BME280;42419;48.760;2.322;2023-03-11T11:12:08;100311.50;;;24.67;25.22
56518;BME280;42419;48.760;2.322;2023-03-11T11:14:48;100233.81;;;24.20;25.58
56518;BME280;42419;48.760;2.322;2023-03-11T11:17:28;100233.72;;;24.22;25.34
56518;BME280;42419;48.760;2.322;2023-03-11T11:19:55;100286.56;;;24.64;25.66
56518;BME280;42419;48.760;2.322;2023-03-11T11:22:22;100292.81;;;24.64;25.43
56518;BME280;42419;48.760;2.322;2023-03-11T11:24:50;100299.84;;;24.67;25.31
56518;BME280;42419;48.760;2.322;2023-03-11T11:27:25;100302.53;;;24.67;25.34
56518;BME280;42419;48.760;2.322;2023-03-11T11:30:12;100304.47;;;24.65;25.32
56518;BME280;42419;48.760;2.322;2023-03-11T11:32:38;100304.38;;;24.66;25.35
56518;BME280;42419;48.760;2.322;2023-03-11T11:35:07;100288.97;;;24.68;25.34
56518;BME280;42419;48.760;2.322;2023-03-11T11:37:37;100290.81;;;24.68;25.59
56518;BME280;42419;48.760;2.322;2023-03-11T11:43:05;100293.59;;;24.66;25.91
56518;BME280;42419;48.760;2.322;2023-03-11T11:45:39;100295.44;;;24.66;25.54
56518;BME280;42419;48.760;2.322;2023-03-11T11:48:19;100290.91;;;24.66;25.44
56518;BME280;42419;48.760;2.322;2023-03-11T11:50:56;100274.09;;;24.63;25.76
56518;BME280;42419;48.760;2.322;2023-03-11T11:53:43;100281.66;;;24.70;25.48
56518;BME280;42419;48.760;2.322;2023-03-11T11:56:11;100276.28;;;24.70;25.69
56518;BME280;42419;48.760;2.322;2023-03-11T11:58:38;100257.88;;;24.50;25.86
56518;BME280;42419;48.760;2.322;2023-03-11T12:04:12;100282.75;;;24.68;25.42
56518;BME280;42419;48.760;2.322;2023-03-11T12:06:49;100276.66;;;24.64;25.84
56518;BME280;42419;48.760;2.322;2023-03-11T12:17:17;100250.69;;;24.36;25.89
56518;BME280;42419;48.760;2.322;2023-03-11T12:20:02;100290.72;;;24.55;25.53
56518;BME280;42419;48.760;2.322;2023-03-11T12:22:52;100238.59;;;24.29;25.84
56518;BME280;42419;48.760;2.322;2023-03-11T12:28:16;100267.88;;;24.48;25.97
56518;BME280;42419;48.760;2.322;2023-03-11T12:30:47;100262.50;;;24.48;25.56
56518;BME280;42419;48.760;2.322;2023-03-11T12:33:36;100194.34;;;24.06;25.42
56518;BME280;42419;48.760;2.322;2023-03-11T12:36:03;100262.78;;;24.43;26.01
56518;BME280;42419;48.760;2.322;2023-03-11T12:38:33;100256.31;;;24.46;26.03
56518;BME280;42419;48.760;2.322;2023-03-11T12:45:59;100261.91;;;24.43;26.08
56518;BME280;42419;48.760;2.322;2023-03-11T12:50:59;100248.75;;;24.38;26.19
56518;BME280;42419;48.760;2.322;2023-03-11T12:56:36;100250.41;;;24.41;25.95
56518;BME280;42419;48.760;2.322;2023-03-11T13:02:44;100254.34;;;24.35;25.76
56518;BME280;42419;48.760;2.322;2023-03-11T13:07:49;100255.69;;;24.28;26.30
56518;BME280;42419;48.760;2.322;2023-03-11T13:12:48;100185.03;;;23.84;25.88
56518;BME280;42419;48.760;2.322;2023-03-11T13:15:25;100242.44;;;24.25;26.18
56518;BME280;42419;48.760;2.322;2023-03-11T13:28:51;100169.50;;;23.74;26.16
56518;BME280;42419;48.760;2.322;2023-03-11T13:39:36;100215.41;;;24.00;26.23
56518;BME280;42419;48.760;2.322;2023-03-11T13:42:26;100240.06;;;24.06;26.33
56518;BME280;42419;48.760;2.322;2023-03-11T13:44:55;100232.94;;;24.05;26.20
56518;BME280;42419;48.760;2.322;2023-03-11T13:47:22;100237.50;;;24.05;26.04
56518;BME280;42419;48.760;2.322;2023-03-11T13:49:57;100227.88;;;24.01;25.81
56518;BME280;42419;48.760;2.322;2023-03-11T13:52:27;100232.22;;;24.03;25.81
56518;BME280;42419;48.760;2.322;2023-03-11T13:55:00;100227.78;;;24.02;26.65
56518;BME280;42419;48.760;2.322;2023-03-11T13:57:32;100238.63;;;24.01;26.35
56518;BME280;42419;48.760;2.322;2023-03-11T14:00:13;100241.44;;;23.99;26.34
56518;BME280;42419;48.760;2.322;2023-03-11T14:02:45;100242.31;;;24.00;26.15